createdAt,value
2022-12-29T00:00:00.566Z,2.06
2022-12-29T00:01:00.598Z,2.06
2022-12-29T00:02:00.566Z,2.17
2022-12-29T00:03:00.765Z,2.14
2022-12-29T00:04:00.545Z,2.17
2022-12-29T00:05:00.508Z,2.25
2022-12-29T00:06:00.485Z,2.25
2022-12-29T00:07:00.496Z,2.28
2022-12-29T00:08:00.507Z,2.24
2022-12-29T00:09:00.445Z,2.25
2022-12-29T00:10:00.436Z,2.27
2022-12-29T00:11:00.460Z,2.42
2022-12-29T00:12:00.425Z,2.30
2022-12-29T00:13:00.423Z,2.41
2022-12-29T00:14:00.432Z,2.48
2022-12-29T00:15:00.387Z,2.43
2022-12-29T00:16:00.468Z,2.42
2022-12-29T00:17:00.392Z,2.49
2022-12-29T00:18:00.353Z,2.45
2022-12-29T00:19:00.371Z,2.52
2022-12-29T00:20:00.386Z,2.56
2022-12-29T00:21:00.327Z,2.57
2022-12-29T00:22:00.321Z,2.56
2022-12-29T00:23:00.292Z,2.63
2022-12-29T00:24:00.292Z,2.61
2022-12-29T00:25:00.278Z,2.64
2022-12-29T00:26:00.278Z,2.71
2022-12-29T00:27:00.265Z,2.71
2022-12-29T00:28:06.408Z,2.82
2022-12-29T00:29:01.247Z,2.84
2022-12-29T00:30:00.270Z,2.78
2022-12-29T00:31:00.266Z,2.93
2022-12-29T00:32:00.302Z,2.89
2022-12-29T00:33:00.206Z,2.85
2022-12-29T00:34:00.294Z,2.82
2022-12-29T00:35:00.188Z,2.89
2022-12-29T00:36:00.179Z,2.77
2022-12-29T00:37:00.133Z,2.64
2022-12-29T00:38:00.136Z,2.60
2022-12-29T00:39:00.163Z,2.63
2022-12-29T00:40:00.124Z,2.61
2022-12-29T00:41:00.131Z,2.64
2022-12-29T00:42:00.121Z,2.59
2022-12-29T00:43:00.139Z,2.59
2022-12-29T00:44:00.067Z,2.61
2022-12-29T00:45:00.098Z,2.56
2022-12-29T00:46:00.048Z,2.64
2022-12-29T00:47:00.095Z,2.56
2022-12-29T00:48:00.047Z,2.61
2022-12-29T00:49:00.026Z,2.56
2022-12-29T00:49:59.993Z,2.59
2022-12-29T00:51:00.028Z,2.60
2022-12-29T00:51:59.982Z,2.53
2022-12-29T00:52:59.977Z,2.49
2022-12-29T00:53:59.985Z,2.39
2022-12-29T00:54:59.944Z,2.35
2022-12-29T00:55:59.951Z,2.39
2022-12-29T00:57:00.028Z,2.42
2022-12-29T00:57:59.923Z,2.38
2022-12-29T00:58:59.917Z,2.36
2022-12-29T00:59:59.929Z,2.38
2022-12-29T01:00:59.919Z,2.35
2022-12-29T01:01:59.970Z,2.34
2022-12-29T01:03:00.096Z,2.34
2022-12-29T01:04:03.710Z,2.28
2022-12-29T01:04:59.824Z,2.28
2022-12-29T01:05:59.815Z,2.27
2022-12-29T01:06:59.805Z,2.16
2022-12-29T01:07:59.818Z,2.20
2022-12-29T01:08:59.811Z,2.14
2022-12-29T01:09:59.804Z,2.14
2022-12-29T01:10:59.757Z,2.02
2022-12-29T01:11:59.747Z,2.03
2022-12-29T01:12:59.736Z,2.05
2022-12-29T01:13:59.725Z,2.06
2022-12-29T01:14:59.768Z,2.10
2022-12-29T01:15:59.828Z,2.10
2022-12-29T01:16:59.699Z,2.09
2022-12-29T01:17:59.683Z,2.14
2022-12-29T01:18:59.681Z,2.14
2022-12-29T01:19:59.732Z,2.10
2022-12-29T01:20:59.683Z,2.12
2022-12-29T01:21:59.669Z,2.06
2022-12-29T01:22:59.624Z,2.02
2022-12-29T01:23:59.614Z,2.05
2022-12-29T01:24:59.631Z,2.03
2022-12-29T01:25:59.601Z,2.09
2022-12-29T01:26:59.620Z,2.17
2022-12-29T01:27:59.570Z,2.07
2022-12-29T01:28:59.580Z,2.20
2022-12-29T01:29:59.562Z,2.20
2022-12-29T01:30:59.580Z,2.17
2022-12-29T01:31:59.635Z,2.25
2022-12-29T01:32:59.556Z,2.25
2022-12-29T01:33:59.506Z,2.23
2022-12-29T01:34:59.511Z,2.31
2022-12-29T01:35:59.508Z,2.21
2022-12-29T01:36:59.493Z,2.23
2022-12-29T01:37:59.469Z,2.28
2022-12-29T01:38:59.492Z,2.21
2022-12-29T01:39:59.440Z,2.28
2022-12-29T01:40:59.446Z,2.25
2022-12-29T01:41:59.427Z,2.27
2022-12-29T01:42:59.420Z,2.20
2022-12-29T01:43:59.413Z,2.21
2022-12-29T01:44:59.427Z,2.25
2022-12-29T01:45:59.460Z,2.24
2022-12-29T01:46:59.384Z,2.21
2022-12-29T01:47:59.374Z,2.20
2022-12-29T01:48:59.347Z,2.18
2022-12-29T01:49:59.363Z,2.17
2022-12-29T01:50:59.360Z,2.14
2022-12-29T01:51:59.342Z,2.14
2022-12-29T01:52:59.294Z,2.14
2022-12-29T01:53:59.367Z,2.12
2022-12-29T01:54:59.277Z,2.14
2022-12-29T01:55:59.265Z,2.20
2022-12-29T01:56:59.290Z,2.21
2022-12-29T01:57:59.238Z,2.28
2022-12-29T01:58:59.244Z,2.28
2022-12-29T01:59:59.246Z,2.21
2022-12-29T02:00:59.284Z,2.28
2022-12-29T02:01:59.302Z,2.31
2022-12-29T02:02:59.297Z,2.31
2022-12-29T02:03:59.172Z,2.30
2022-12-29T02:05:04.244Z,2.31
2022-12-29T02:06:00.169Z,2.34
2022-12-29T02:06:59.160Z,2.34
2022-12-29T02:07:59.176Z,2.31
2022-12-29T02:08:59.128Z,2.27
2022-12-29T02:09:59.118Z,2.30
2022-12-29T02:10:59.091Z,2.27
2022-12-29T02:11:59.096Z,2.25
2022-12-29T02:12:59.066Z,2.30
2022-12-29T02:14:03.173Z,2.28
2022-12-29T02:14:59.068Z,2.31
2022-12-29T02:15:59.122Z,2.23
2022-12-29T02:16:59.068Z,2.28
2022-12-29T02:17:59.025Z,2.20
2022-12-29T02:18:59.042Z,2.18
2022-12-29T02:19:59.004Z,2.18
2022-12-29T02:20:58.992Z,2.14
2022-12-29T02:21:58.992Z,2.12
2022-12-29T02:22:58.972Z,2.17
2022-12-29T02:23:59.041Z,2.12
2022-12-29T02:24:58.937Z,2.18
2022-12-29T02:25:58.937Z,2.12
2022-12-29T02:26:58.945Z,2.23
2022-12-29T02:27:58.924Z,2.24
2022-12-29T02:28:58.912Z,2.24
2022-12-29T02:29:58.911Z,2.17
2022-12-29T02:30:58.872Z,2.30
2022-12-29T02:31:58.891Z,2.34
2022-12-29T02:32:58.880Z,2.24
2022-12-29T02:33:58.840Z,2.34
2022-12-29T02:34:58.882Z,2.30
2022-12-29T02:35:58.812Z,2.42
2022-12-29T02:36:58.805Z,2.38
2022-12-29T02:37:58.791Z,2.46
2022-12-29T02:38:58.804Z,2.49
2022-12-29T02:39:58.800Z,2.57
2022-12-29T02:40:58.819Z,2.52
2022-12-29T02:41:58.749Z,2.56
2022-12-29T02:42:58.737Z,2.57
2022-12-29T02:43:58.725Z,2.59
2022-12-29T02:44:58.732Z,2.59
2022-12-29T02:45:58.756Z,2.57
2022-12-29T02:46:58.722Z,2.64
2022-12-29T02:47:58.681Z,2.63
2022-12-29T02:48:58.789Z,2.64
2022-12-29T02:49:58.676Z,2.69
2022-12-29T02:50:58.671Z,2.63
2022-12-29T02:51:58.654Z,2.61
2022-12-29T02:52:58.629Z,2.72
2022-12-29T02:53:58.627Z,2.63
2022-12-29T02:54:58.601Z,2.66
2022-12-29T02:55:58.628Z,2.69
2022-12-29T02:56:58.614Z,2.84
2022-12-29T02:57:58.594Z,2.84
2022-12-29T02:58:58.561Z,2.78
2022-12-29T02:59:58.561Z,2.85
2022-12-29T03:00:58.605Z,2.87
2022-12-29T03:01:58.729Z,2.89
2022-12-29T03:02:58.696Z,2.87
2022-12-29T03:03:58.534Z,2.85
2022-12-29T03:04:58.493Z,2.89
2022-12-29T03:05:58.501Z,2.92
2022-12-29T03:06:58.494Z,2.95
2022-12-29T03:07:58.457Z,2.90
2022-12-29T03:08:58.488Z,2.97
2022-12-29T03:09:58.439Z,3.05
2022-12-29T03:10:58.445Z,2.99
2022-12-29T03:11:58.449Z,3.03
2022-12-29T03:12:58.431Z,3.11
2022-12-29T03:13:58.394Z,3.14
2022-12-29T03:14:58.433Z,3.13
2022-12-29T03:15:58.367Z,3.17
2022-12-29T03:16:58.408Z,3.21
2022-12-29T03:17:58.356Z,3.18
2022-12-29T03:18:58.366Z,3.23
2022-12-29T03:19:58.336Z,3.28
2022-12-29T03:20:58.366Z,3.28
2022-12-29T03:21:58.306Z,3.39
2022-12-29T03:22:58.292Z,3.33
2022-12-29T03:23:58.300Z,3.43
2022-12-29T03:24:58.305Z,3.42
2022-12-29T03:25:58.279Z,3.33
2022-12-29T03:26:58.299Z,3.42
2022-12-29T03:27:58.249Z,3.51
2022-12-29T03:28:58.225Z,3.57
2022-12-29T03:29:58.248Z,3.58
2022-12-29T03:30:58.279Z,3.55
2022-12-29T03:31:58.220Z,3.70
2022-12-29T03:32:58.228Z,3.68
2022-12-29T03:33:58.171Z,3.73
2022-12-29T03:34:58.188Z,3.79
2022-12-29T03:35:58.198Z,3.79
2022-12-29T03:36:58.153Z,3.87
2022-12-29T03:37:58.124Z,3.94
2022-12-29T03:38:58.158Z,3.98
2022-12-29T03:39:58.104Z,4.06
2022-12-29T03:40:58.127Z,4.12
2022-12-29T03:41:58.078Z,4.15
2022-12-29T03:42:58.084Z,4.20
2022-12-29T03:43:58.072Z,4.27
2022-12-29T03:44:58.113Z,4.33
2022-12-29T03:45:58.078Z,4.37
2022-12-29T03:46:58.046Z,4.33
2022-12-29T03:47:58.017Z,4.30
2022-12-29T03:48:58.029Z,4.44
2022-12-29T03:49:58.005Z,4.47
2022-12-29T03:50:58.010Z,4.51
2022-12-29T03:51:57.998Z,4.54
2022-12-29T03:52:57.974Z,4.60
2022-12-29T03:53:57.956Z,4.63
2022-12-29T03:54:57.950Z,4.58
2022-12-29T03:55:57.950Z,4.66
2022-12-29T03:56:57.977Z,4.69
2022-12-29T03:57:57.936Z,4.73
2022-12-29T03:58:57.888Z,4.75
2022-12-29T03:59:57.913Z,4.78
2022-12-29T04:00:57.870Z,4.75
2022-12-29T04:01:58.050Z,4.70
2022-12-29T04:02:58.051Z,4.78
2022-12-29T04:03:57.842Z,4.78
2022-12-29T04:04:57.825Z,4.78
2022-12-29T04:05:57.832Z,4.73
2022-12-29T04:06:57.840Z,4.80
2022-12-29T04:07:57.807Z,4.80
2022-12-29T04:08:57.795Z,4.85
2022-12-29T04:09:57.783Z,4.84
2022-12-29T04:10:57.767Z,4.86
2022-12-29T04:11:57.778Z,4.89
2022-12-29T04:12:57.740Z,4.88
2022-12-29T04:13:57.721Z,4.88
2022-12-29T04:14:57.730Z,4.86
2022-12-29T04:15:57.819Z,4.91
2022-12-29T04:16:57.708Z,4.89
2022-12-29T04:17:57.727Z,4.88
2022-12-29T04:18:57.675Z,4.89
2022-12-29T04:19:57.689Z,4.80
2022-12-29T04:20:57.678Z,4.85
2022-12-29T04:21:57.635Z,4.91
2022-12-29T04:22:57.643Z,4.89
2022-12-29T04:23:57.624Z,4.89
2022-12-29T04:24:57.604Z,4.86
2022-12-29T04:25:57.592Z,4.86
2022-12-29T04:26:57.660Z,4.96
2022-12-29T04:27:57.576Z,4.97
2022-12-29T04:28:57.586Z,4.92
2022-12-29T04:29:57.546Z,4.99
2022-12-29T04:30:57.651Z,5.06
2022-12-29T04:31:57.547Z,5.00
2022-12-29T04:32:57.552Z,5.09
2022-12-29T04:33:57.514Z,5.07
2022-12-29T04:34:57.510Z,5.06
2022-12-29T04:35:57.486Z,5.12
2022-12-29T04:36:57.482Z,5.15
2022-12-29T04:37:57.463Z,5.18
2022-12-29T04:38:57.465Z,5.15
2022-12-29T04:39:57.457Z,5.25
2022-12-29T04:40:57.434Z,5.28
2022-12-29T04:41:57.428Z,5.25
2022-12-29T04:42:57.403Z,5.22
2022-12-29T04:43:57.414Z,5.30
2022-12-29T04:44:57.413Z,5.38
2022-12-29T04:45:57.458Z,5.43
2022-12-29T04:46:57.446Z,5.42
2022-12-29T04:47:57.404Z,5.46
2022-12-29T04:48:57.347Z,5.48
2022-12-29T04:49:57.331Z,5.56
2022-12-29T04:50:57.338Z,5.49
2022-12-29T04:51:57.305Z,5.61
2022-12-29T04:52:57.323Z,5.53
2022-12-29T04:53:57.296Z,5.60
2022-12-29T04:54:57.272Z,5.63
2022-12-29T04:55:57.261Z,5.56
2022-12-29T04:56:57.295Z,5.58
2022-12-29T04:57:57.239Z,5.60
2022-12-29T04:58:57.261Z,5.60
2022-12-29T04:59:57.223Z,5.68
2022-12-29T05:00:57.225Z,5.67
2022-12-29T05:01:57.398Z,5.68
2022-12-29T05:02:57.394Z,5.64
2022-12-29T05:03:57.227Z,5.71
2022-12-29T05:04:57.187Z,5.56
2022-12-29T05:05:57.151Z,5.68
2022-12-29T05:06:57.154Z,5.61
2022-12-29T05:07:57.134Z,5.61
2022-12-29T05:08:57.164Z,5.60
2022-12-29T05:09:57.103Z,5.64
2022-12-29T05:10:57.114Z,5.64
2022-12-29T05:11:57.111Z,5.56
2022-12-29T05:12:57.090Z,5.60
2022-12-29T05:13:57.076Z,5.63
2022-12-29T05:14:57.106Z,5.58
2022-12-29T05:15:57.139Z,5.57
2022-12-29T05:16:57.038Z,5.57
2022-12-29T05:17:57.023Z,5.58
2022-12-29T05:18:57.004Z,5.60
2022-12-29T05:19:57.053Z,5.57
2022-12-29T05:20:57.048Z,5.54
2022-12-29T05:21:56.975Z,5.58
2022-12-29T05:22:56.961Z,5.54
2022-12-29T05:23:56.962Z,5.56
2022-12-29T05:24:56.952Z,5.53
2022-12-29T05:25:56.966Z,5.57
2022-12-29T05:26:56.978Z,5.57
2022-12-29T05:27:56.921Z,5.60
2022-12-29T05:28:56.893Z,5.58
2022-12-29T05:29:56.901Z,5.58
2022-12-29T05:30:56.967Z,5.60
2022-12-29T05:31:56.954Z,5.61
2022-12-29T05:32:56.886Z,5.56
2022-12-29T05:33:56.836Z,5.65
2022-12-29T05:34:56.828Z,5.63
2022-12-29T05:35:56.842Z,5.64
2022-12-29T05:36:56.824Z,5.58
2022-12-29T05:37:56.834Z,5.58
2022-12-29T05:38:56.794Z,5.58
2022-12-29T05:39:56.774Z,5.68
2022-12-29T05:40:56.766Z,5.74
2022-12-29T05:41:56.793Z,5.60
2022-12-29T05:42:56.745Z,5.68
2022-12-29T05:43:56.740Z,5.72
2022-12-29T05:44:56.749Z,5.72
2022-12-29T05:45:56.705Z,5.65
2022-12-29T05:46:56.989Z,5.71
2022-12-29T05:47:56.720Z,5.72
2022-12-29T05:48:56.684Z,5.65
2022-12-29T05:49:56.658Z,5.67
2022-12-29T05:50:56.657Z,5.75
2022-12-29T05:51:56.688Z,5.75
2022-12-29T05:52:56.663Z,5.75
2022-12-29T05:53:56.636Z,5.82
2022-12-29T05:54:56.605Z,5.72
2022-12-29T05:55:56.608Z,5.85
2022-12-29T05:56:56.598Z,5.86
2022-12-29T05:57:56.594Z,5.91
2022-12-29T05:58:56.570Z,5.85
2022-12-29T05:59:56.556Z,5.91
2022-12-29T06:00:56.538Z,5.89
2022-12-29T06:01:56.696Z,5.90
2022-12-29T06:02:56.698Z,5.86
2022-12-29T06:03:56.616Z,5.91
2022-12-29T06:04:56.518Z,6.03
2022-12-29T06:05:56.501Z,6.03
2022-12-29T06:06:56.469Z,6.03
2022-12-29T06:07:56.487Z,6.08
2022-12-29T06:08:56.474Z,6.08
2022-12-29T06:09:56.437Z,6.12
2022-12-29T06:10:56.446Z,6.12
2022-12-29T06:11:56.432Z,6.12
2022-12-29T06:12:56.431Z,6.14
2022-12-29T06:13:56.412Z,6.18
2022-12-29T06:14:56.392Z,6.21
2022-12-29T06:15:56.422Z,6.19
2022-12-29T06:16:56.390Z,6.19
2022-12-29T06:17:56.365Z,6.15
2022-12-29T06:18:56.351Z,6.17
2022-12-29T06:19:56.355Z,6.30
2022-12-29T06:20:56.346Z,6.17
2022-12-29T06:21:56.321Z,6.31
2022-12-29T06:22:56.293Z,6.28
2022-12-29T06:23:56.311Z,6.31
2022-12-29T06:25:00.164Z,6.31
2022-12-29T06:25:57.403Z,6.34
2022-12-29T06:26:56.284Z,6.22
2022-12-29T06:27:56.254Z,6.19
2022-12-29T06:28:56.240Z,6.12
2022-12-29T06:29:56.216Z,6.12
2022-12-29T06:30:56.218Z,6.14
2022-12-29T06:31:56.257Z,6.09
2022-12-29T06:32:56.217Z,6.06
2022-12-29T06:33:56.177Z,6.00
2022-12-29T06:34:56.167Z,5.93
2022-12-29T06:35:56.146Z,5.91
2022-12-29T06:36:56.138Z,5.90
2022-12-29T06:37:56.141Z,5.85
2022-12-29T06:38:56.168Z,5.89
2022-12-29T06:39:56.175Z,5.89
2022-12-29T06:40:56.089Z,5.85
2022-12-29T06:41:56.078Z,5.81
2022-12-29T06:42:56.068Z,5.89
2022-12-29T06:43:56.080Z,5.90
2022-12-29T06:44:56.100Z,5.86
2022-12-29T06:45:56.104Z,5.90
2022-12-29T06:46:56.022Z,5.94
2022-12-29T06:47:56.012Z,5.91
2022-12-29T06:48:56.006Z,5.96
2022-12-29T06:49:56.013Z,5.96
2022-12-29T06:50:56.066Z,5.96
2022-12-29T06:51:56.011Z,6.01
2022-12-29T06:52:55.961Z,6.12
2022-12-29T06:53:55.963Z,6.06
2022-12-29T06:55:04.602Z,6.08
2022-12-29T06:55:56.042Z,6.14
2022-12-29T06:56:55.922Z,6.15
2022-12-29T06:57:55.931Z,6.15
2022-12-29T06:58:55.888Z,6.18
2022-12-29T06:59:55.909Z,6.21
2022-12-29T07:00:55.924Z,6.22
2022-12-29T07:01:56.052Z,6.30
2022-12-29T07:02:56.029Z,6.41
2022-12-29T07:03:55.868Z,6.34
2022-12-29T07:04:55.845Z,6.51
2022-12-29T07:05:55.818Z,6.52
2022-12-29T07:06:55.808Z,6.58
2022-12-29T07:07:55.821Z,6.51
2022-12-29T07:08:55.827Z,6.59
2022-12-29T07:09:55.786Z,6.56
2022-12-29T07:10:55.801Z,6.56
2022-12-29T07:11:55.753Z,6.56
2022-12-29T07:12:55.759Z,6.56
2022-12-29T07:13:55.732Z,6.56
2022-12-29T07:14:55.756Z,6.52
2022-12-29T07:15:55.771Z,6.59
2022-12-29T07:16:55.734Z,6.61
2022-12-29T07:17:55.701Z,6.55
2022-12-29T07:18:55.704Z,6.54
2022-12-29T07:19:55.669Z,6.59
2022-12-29T07:20:55.644Z,6.51
2022-12-29T07:21:55.635Z,6.55
2022-12-29T07:22:55.662Z,6.56
2022-12-29T07:23:55.650Z,6.66
2022-12-29T07:24:55.632Z,6.58
2022-12-29T07:25:55.633Z,6.56
2022-12-29T07:26:55.597Z,6.54
2022-12-29T07:27:55.571Z,6.49
2022-12-29T07:28:55.600Z,6.55
2022-12-29T07:29:55.613Z,6.43
2022-12-29T07:30:55.596Z,6.43
2022-12-29T07:31:55.619Z,6.41
2022-12-29T07:32:55.529Z,6.41
2022-12-29T07:33:55.507Z,6.37
2022-12-29T07:34:55.503Z,6.33
2022-12-29T07:35:55.504Z,6.34
2022-12-29T07:36:55.482Z,6.37
2022-12-29T07:37:55.492Z,6.30
2022-12-29T07:38:55.450Z,6.30
2022-12-29T07:39:55.467Z,6.37
2022-12-29T07:40:55.423Z,6.33
2022-12-29T07:42:01.091Z,6.36
2022-12-29T07:42:56.420Z,6.33
2022-12-29T07:43:55.387Z,6.37
2022-12-29T07:44:55.387Z,6.30
2022-12-29T07:45:55.506Z,6.28
2022-12-29T07:46:57.827Z,6.27
2022-12-29T07:47:55.381Z,6.33
2022-12-29T07:48:55.329Z,6.33
2022-12-29T07:49:55.334Z,6.19
2022-12-29T07:50:55.313Z,6.22
2022-12-29T07:51:55.332Z,6.19
2022-12-29T07:52:55.304Z,6.21
2022-12-29T07:53:55.293Z,6.34
2022-12-29T07:54:55.262Z,6.36
2022-12-29T07:55:55.274Z,6.38
2022-12-29T07:56:55.308Z,6.40
2022-12-29T07:57:55.237Z,6.41
2022-12-29T07:58:55.262Z,6.52
2022-12-29T07:59:55.240Z,6.52
2022-12-29T08:00:55.276Z,6.58
2022-12-29T08:01:55.370Z,6.55
2022-12-29T08:02:55.197Z,6.55
2022-12-29T08:03:57.517Z,6.54
2022-12-29T08:04:55.159Z,6.49
2022-12-29T08:05:55.141Z,6.52
2022-12-29T08:06:55.126Z,6.59
2022-12-29T08:07:55.143Z,6.59
2022-12-29T08:08:55.214Z,6.66
2022-12-29T08:09:55.114Z,6.69
2022-12-29T08:10:55.111Z,6.79
2022-12-29T08:11:55.116Z,6.85
2022-12-29T08:12:55.067Z,6.95
2022-12-29T08:13:55.068Z,6.95
2022-12-29T08:14:55.065Z,7.05
2022-12-29T08:15:55.114Z,7.21
2022-12-29T08:16:55.058Z,7.27
2022-12-29T08:17:55.007Z,7.31
2022-12-29T08:18:55.019Z,7.45
2022-12-29T08:19:55.027Z,7.52
2022-12-29T08:20:55.832Z,7.57
2022-12-29T08:21:54.983Z,7.72
2022-12-29T08:22:54.949Z,7.64
2022-12-29T08:23:54.989Z,7.82
2022-12-29T08:24:54.932Z,7.87
2022-12-29T08:25:54.932Z,7.95
2022-12-29T08:26:54.945Z,7.95
2022-12-29T08:27:54.918Z,8.02
2022-12-29T08:28:54.881Z,8.11
2022-12-29T08:29:54.876Z,8.15
2022-12-29T08:30:54.977Z,8.15
2022-12-29T08:31:54.850Z,8.11
2022-12-29T08:32:54.879Z,8.28
2022-12-29T08:33:54.878Z,8.29
2022-12-29T08:34:54.816Z,8.36
2022-12-29T08:35:54.807Z,8.33
2022-12-29T08:36:54.804Z,8.30
2022-12-29T08:37:54.784Z,8.28
2022-12-29T08:38:54.794Z,8.41
2022-12-29T08:39:54.799Z,8.29
2022-12-29T08:40:54.747Z,8.47
2022-12-29T08:41:54.740Z,8.48
2022-12-29T08:42:54.737Z,8.40
2022-12-29T08:43:54.747Z,8.43
2022-12-29T08:44:54.715Z,8.50
2022-12-29T08:45:54.800Z,8.61
2022-12-29T08:46:54.789Z,8.70
2022-12-29T08:47:54.703Z,8.68
2022-12-29T08:48:54.695Z,8.83
2022-12-29T08:49:54.682Z,8.94
2022-12-29T08:50:54.650Z,8.94
2022-12-29T08:51:54.631Z,8.92
2022-12-29T08:52:54.630Z,9.08
2022-12-29T08:53:54.704Z,9.11
2022-12-29T08:54:54.595Z,9.17
2022-12-29T08:55:57.930Z,9.17
2022-12-29T08:56:55.570Z,9.23
2022-12-29T08:57:54.557Z,9.26
2022-12-29T08:58:54.563Z,9.32
2022-12-29T08:59:54.568Z,9.39
2022-12-29T09:00:54.575Z,9.42
2022-12-29T09:01:54.635Z,9.38
2022-12-29T09:02:54.885Z,9.60
2022-12-29T09:04:55.555Z,9.61
2022-12-29T09:05:54.496Z,9.66
2022-12-29T09:06:54.492Z,9.61
2022-12-29T09:07:54.472Z,9.75
2022-12-29T09:08:54.472Z,9.72
2022-12-29T09:09:54.428Z,9.86
2022-12-29T09:10:55.071Z,9.91
2022-12-29T09:11:54.419Z,9.96
2022-12-29T09:12:54.399Z,10.02
2022-12-29T09:13:54.430Z,10.02
2022-12-29T09:14:54.370Z,10.11
2022-12-29T09:15:54.437Z,10.17
2022-12-29T09:16:54.402Z,10.18
2022-12-29T09:17:54.341Z,10.18
2022-12-29T09:18:54.381Z,10.29
2022-12-29T09:19:54.316Z,10.36
2022-12-29T09:20:54.302Z,10.44
2022-12-29T09:21:54.328Z,10.47
2022-12-29T09:22:54.335Z,10.42
2022-12-29T09:23:54.279Z,10.52
2022-12-29T09:24:54.273Z,10.55
2022-12-29T09:25:54.251Z,10.64
2022-12-29T09:26:54.257Z,10.79
2022-12-29T09:27:54.257Z,10.70
2022-12-29T09:28:54.227Z,10.76
2022-12-29T09:29:54.219Z,10.74
2022-12-29T09:30:54.217Z,10.74
2022-12-29T09:31:54.370Z,10.84
2022-12-29T09:32:55.569Z,10.71
2022-12-29T09:33:54.194Z,10.81
2022-12-29T09:34:54.198Z,10.81
2022-12-29T09:35:54.151Z,10.84
2022-12-29T09:36:54.166Z,10.82
2022-12-29T09:37:54.116Z,10.71
2022-12-29T09:38:54.104Z,10.82
2022-12-29T09:39:54.776Z,10.79
2022-12-29T09:40:54.126Z,10.68
2022-12-29T09:41:54.116Z,10.68
2022-12-29T09:42:54.061Z,10.78
2022-12-29T09:43:54.078Z,10.71
2022-12-29T09:44:54.035Z,10.78
2022-12-29T09:45:54.028Z,10.68
2022-12-29T09:46:54.085Z,10.68
2022-12-29T09:47:54.051Z,10.68
2022-12-29T09:48:54.030Z,10.73
2022-12-29T09:49:53.982Z,10.74
2022-12-29T09:50:53.995Z,10.73
2022-12-29T09:51:53.961Z,10.66
2022-12-29T09:52:53.962Z,10.66
2022-12-29T09:53:53.971Z,10.74
2022-12-29T09:55:00.923Z,10.70
2022-12-29T09:55:54.940Z,10.71
2022-12-29T09:56:53.923Z,10.71
2022-12-29T09:57:53.916Z,10.68
2022-12-29T09:58:53.899Z,10.61
2022-12-29T09:59:53.872Z,10.71
2022-12-29T10:00:55.662Z,10.68
2022-12-29T10:01:54.224Z,10.73
2022-12-29T10:02:54.006Z,10.66
2022-12-29T10:03:53.865Z,10.79
2022-12-29T10:04:53.840Z,10.78
2022-12-29T10:05:53.873Z,10.81
2022-12-29T10:07:27.826Z,10.67
2022-12-29T10:07:54.822Z,10.81
2022-12-29T10:08:53.772Z,10.81
2022-12-29T10:09:53.779Z,10.79
2022-12-29T10:10:53.749Z,10.81
2022-12-29T10:11:53.801Z,10.81
2022-12-29T10:12:53.735Z,10.84
2022-12-29T10:13:53.738Z,10.81
2022-12-29T10:14:53.709Z,10.85
2022-12-29T10:15:53.831Z,10.84
2022-12-29T10:16:53.685Z,10.78
2022-12-29T10:17:53.743Z,10.82
2022-12-29T10:18:53.675Z,10.85
2022-12-29T10:19:53.675Z,10.91
2022-12-29T10:20:53.682Z,10.81
2022-12-29T10:21:53.641Z,10.85
2022-12-29T10:22:53.642Z,10.85
2022-12-29T10:23:53.634Z,10.89
2022-12-29T10:24:53.595Z,10.89
2022-12-29T10:25:53.612Z,10.81
2022-12-29T10:26:53.594Z,10.86
2022-12-29T10:27:53.607Z,10.94
2022-12-29T10:28:53.554Z,10.89
2022-12-29T10:29:53.583Z,10.78
2022-12-29T10:30:53.538Z,10.86
2022-12-29T10:31:53.607Z,10.89
2022-12-29T10:32:53.523Z,10.81
2022-12-29T10:33:53.496Z,10.89
2022-12-29T10:34:53.487Z,10.86
2022-12-29T10:35:53.485Z,10.91
2022-12-29T10:36:53.473Z,10.89
2022-12-29T10:37:53.481Z,10.96
2022-12-29T10:38:53.469Z,10.99
2022-12-29T10:39:53.469Z,10.99
2022-12-29T10:40:53.449Z,10.92
2022-12-29T10:41:53.450Z,11.00
2022-12-29T10:42:53.415Z,11.03
2022-12-29T10:43:53.412Z,11.09
2022-12-29T10:44:53.392Z,11.02
2022-12-29T10:45:53.425Z,11.04
2022-12-29T10:46:53.356Z,11.09
2022-12-29T10:47:53.391Z,11.09
2022-12-29T10:48:53.330Z,11.04
2022-12-29T10:49:53.332Z,11.04
2022-12-29T10:50:57.233Z,10.97
2022-12-29T10:51:54.296Z,11.09
2022-12-29T10:52:53.320Z,11.10
2022-12-29T10:53:53.314Z,11.03
2022-12-29T10:54:53.316Z,11.09
2022-12-29T10:55:53.269Z,11.14
2022-12-29T10:56:53.372Z,11.06
2022-12-29T10:57:53.238Z,11.21
2022-12-29T10:58:53.228Z,11.19
2022-12-29T10:59:53.235Z,11.27
2022-12-29T11:00:53.298Z,11.22
2022-12-29T11:01:53.374Z,11.18
2022-12-29T11:02:53.371Z,11.28
2022-12-29T11:03:53.162Z,11.33
2022-12-29T11:04:53.210Z,11.28
2022-12-29T11:05:53.139Z,11.35
2022-12-29T11:06:53.144Z,11.37
2022-12-29T11:07:53.145Z,11.28
2022-12-29T11:08:53.151Z,11.35
2022-12-29T11:09:53.121Z,11.32
2022-12-29T11:10:53.118Z,11.37
2022-12-29T11:11:53.093Z,11.29
2022-12-29T11:12:53.072Z,11.35
2022-12-29T11:13:53.092Z,11.29
2022-12-29T11:14:53.049Z,11.28
2022-12-29T11:15:53.060Z,11.27
2022-12-29T11:16:53.145Z,11.29
2022-12-29T11:17:53.020Z,11.25
2022-12-29T11:18:53.012Z,11.33
2022-12-29T11:19:53.041Z,11.27
2022-12-29T11:20:52.971Z,11.19
2022-12-29T11:21:52.995Z,11.14
2022-12-29T11:22:52.950Z,11.32
2022-12-29T11:23:52.953Z,11.36
2022-12-29T11:24:52.962Z,11.37
2022-12-29T11:25:52.963Z,11.37
2022-12-29T11:26:52.938Z,11.37
2022-12-29T11:27:52.901Z,11.33
2022-12-29T11:28:52.889Z,11.40
2022-12-29T11:29:52.898Z,11.33
2022-12-29T11:30:52.872Z,11.35
2022-12-29T11:31:52.985Z,11.37
2022-12-29T11:32:52.840Z,11.39
2022-12-29T11:33:52.845Z,11.46
2022-12-29T11:34:52.823Z,11.51
2022-12-29T11:35:52.822Z,11.54
2022-12-29T11:36:52.792Z,11.58
2022-12-29T11:37:52.806Z,11.73
2022-12-29T11:38:52.780Z,11.72
2022-12-29T11:39:52.799Z,11.90
2022-12-29T11:40:52.762Z,11.88
2022-12-29T11:41:52.737Z,11.91
2022-12-29T11:42:52.750Z,11.90
2022-12-29T11:43:52.738Z,11.90
2022-12-29T11:44:52.722Z,11.91
2022-12-29T11:45:52.755Z,11.95
2022-12-29T11:46:52.698Z,11.95
2022-12-29T11:47:52.702Z,11.96
2022-12-29T11:48:52.659Z,11.91
2022-12-29T11:49:52.647Z,11.98
2022-12-29T11:50:52.665Z,11.99
2022-12-29T11:51:52.669Z,12.01
2022-12-29T11:52:52.623Z,12.05
2022-12-29T11:53:52.602Z,12.14
2022-12-29T11:54:52.603Z,12.14
2022-12-29T11:55:52.583Z,12.19
2022-12-29T11:56:52.620Z,12.16
2022-12-29T11:57:52.574Z,12.20
2022-12-29T11:58:52.569Z,12.23
2022-12-29T11:59:52.533Z,12.23
2022-12-29T12:00:52.525Z,12.20
2022-12-29T12:01:52.614Z,12.20
2022-12-29T12:02:52.560Z,12.27
2022-12-29T12:03:52.584Z,12.29
2022-12-29T12:04:52.508Z,12.29
2022-12-29T12:05:52.465Z,12.23
2022-12-29T12:06:52.461Z,12.17
2022-12-29T12:07:52.468Z,12.21
2022-12-29T12:08:52.463Z,12.28
2022-12-29T12:09:52.441Z,12.37
2022-12-29T12:10:52.408Z,12.35
2022-12-29T12:11:52.426Z,12.32
2022-12-29T12:12:52.402Z,12.34
2022-12-29T12:13:52.387Z,12.39
2022-12-29T12:14:52.409Z,12.41
2022-12-29T12:15:56.355Z,12.45
2022-12-29T12:16:52.405Z,12.39
2022-12-29T12:17:52.371Z,12.39
2022-12-29T12:18:52.339Z,12.42
2022-12-29T12:19:52.314Z,12.45
2022-12-29T12:20:52.329Z,12.47
2022-12-29T12:21:52.316Z,12.47
2022-12-29T12:22:52.298Z,12.50
2022-12-29T12:23:52.269Z,12.45
2022-12-29T12:24:52.280Z,12.46
2022-12-29T12:25:52.254Z,12.49
2022-12-29T12:26:52.271Z,12.59
2022-12-29T12:27:52.257Z,12.57
2022-12-29T12:28:52.246Z,12.57
2022-12-29T12:29:52.214Z,12.49
2022-12-29T12:30:52.298Z,12.53
2022-12-29T12:31:52.180Z,12.65
2022-12-29T12:32:52.167Z,12.52
2022-12-29T12:33:52.198Z,12.53
2022-12-29T12:34:52.144Z,12.52
2022-12-29T12:35:52.150Z,12.52
2022-12-29T12:36:52.121Z,12.56
2022-12-29T12:37:52.123Z,12.56
2022-12-29T12:38:52.123Z,12.62
2022-12-29T12:39:52.094Z,12.56
2022-12-29T12:40:52.081Z,12.60
2022-12-29T12:41:52.054Z,12.54
2022-12-29T12:42:52.086Z,12.56
2022-12-29T12:43:52.091Z,12.52
2022-12-29T12:44:52.025Z,12.52
2022-12-29T12:45:52.227Z,12.45
2022-12-29T12:46:52.149Z,12.52
2022-12-29T12:47:51.999Z,12.45
2022-12-29T12:48:51.991Z,12.46
2022-12-29T12:49:51.997Z,12.52
2022-12-29T12:50:51.980Z,12.57
2022-12-29T12:51:51.961Z,12.57
2022-12-29T12:52:51.961Z,12.54
2022-12-29T12:53:51.936Z,12.54
2022-12-29T12:54:52.047Z,12.49
2022-12-29T12:55:51.933Z,12.56
2022-12-29T12:56:51.899Z,12.49
2022-12-29T12:57:51.890Z,12.54
2022-12-29T12:58:51.902Z,12.42
2022-12-29T12:59:51.867Z,12.47
2022-12-29T13:00:51.842Z,12.49
2022-12-29T13:01:51.947Z,12.49
2022-12-29T13:02:52.044Z,12.47
2022-12-29T13:03:51.905Z,12.50
2022-12-29T13:04:51.825Z,12.49
2022-12-29T13:05:51.803Z,12.47
2022-12-29T13:06:51.778Z,12.46
2022-12-29T13:07:51.765Z,12.42
2022-12-29T13:08:51.821Z,12.41
2022-12-29T13:09:51.740Z,12.41
2022-12-29T13:10:53.503Z,12.37